sensor_id;sensor_type;location;lat;lon;timestamp;temperature;humidity
5578;DHT22;2811;51.900;10.734;2023-08-20T00:00:38;23.50;99.90
5578;DHT22;2811;51.900;10.734;2023-08-20T00:03:12;23.60;99.90
5578;DHT22;2811;51.900;10.734;2023-08-20T00:05:39;23.50;99.90
5578;DHT22;2811;51.900;10.734;2023-08-20T00:08:06;23.50;99.90
5578;DHT22;2811;51.900;10.734;2023-08-20T00:10:33;23.60;99.90
5578;DHT22;2811;51.900;10.734;2023-08-20T00:13:01;23.60;99.90
5578;DHT22;2811;51.900;10.734;2023-08-20T00:15:29;23.60;99.90
5578;DHT22;2811;51.900;10.734;2023-08-20T00:17:56;23.60;99.90
5578;DHT22;2811;51.900;10.734;2023-08-20T00:20:24;23.60;99.90
5578;DHT22;2811;51.900;10.734;2023-08-20T00:22:51;23.50;99.90
5578;DHT22;2811;51.900;10.734;2023-08-20T00:25:18;23.50;99.90
5578;DHT22;2811;51.900;10.734;2023-08-20T00:27:45;23.40;99.90
5578;DHT22;2811;51.900;10.734;2023-08-20T00:30:13;23.30;99.90
5578;DHT22;2811;51.900;10.734;2023-08-20T00:32:40;23.30;99.90
5578;DHT22;2811;51.900;10.734;2023-08-20T00:35:07;23.30;99.90
5578;DHT22;2811;51.900;10.734;2023-08-20T00:37:34;23.30;99.90
5578;DHT22;2811;51.900;10.734;2023-08-20T00:40:01;23.30;99.90
5578;DHT22;2811;51.900;10.734;2023-08-20T00:42:30;23.30;99.90
5578;DHT22;2811;51.900;10.734;2023-08-20T00:44:57;23.30;99.90
5578;DHT22;2811;51.900;10.734;2023-08-20T00:47:25;23.30;99.90
5578;DHT22;2811;51.900;10.734;2023-08-20T00:49:52;23.30;99.90
5578;DHT22;2811;51.900;10.734;2023-08-20T00:52:20;23.40;99.90
5578;DHT22;2811;51.900;10.734;2023-08-20T00:54:49;23.40;99.90
5578;DHT22;2811;51.900;10.734;2023-08-20T00:57:17;23.40;99.90
5578;DHT22;2811;51.900;10.734;2023-08-20T00:59:44;23.40;99.90
5578;DHT22;2811;51.900;10.734;2023-08-20T01:02:12;23.30;99.90
5578;DHT22;2811;51.900;10.734;2023-08-20T01:04:41;23.30;99.90
5578;DHT22;2811;51.900;10.734;2023-08-20T01:07:14;23.30;99.90
5578;DHT22;2811;51.900;10.734;2023-08-20T01:09:50;23.40;99.90
5578;DHT22;2811;51.900;10.734;2023-08-20T01:12:17;23.30;99.90
5578;DHT22;2811;51.900;10.734;2023-08-20T01:14:45;23.40;99.90
5578;DHT22;2811;51.900;10.734;2023-08-20T01:17:12;23.40;99.90
5578;DHT22;2811;51.900;10.734;2023-08-20T01:19:40;23.40;99.90
5578;DHT22;2811;51.900;10.734;2023-08-20T01:22:27;23.30;99.90
5578;DHT22;2811;51.900;10.734;2023-08-20T01:25:03;23.40;99.90
5578;DHT22;2811;51.900;10.734;2023-08-20T01:27:39;23.40;99.90
5578;DHT22;2811;51.900;10.734;2023-08-20T01:30:12;23.40;99.90
5578;DHT22;2811;51.900;10.734;2023-08-20T01:32:39;23.30;99.90
5578;DHT22;2811;51.900;10.734;2023-08-20T01:35:11;23.40;99.90
5578;DHT22;2811;51.900;10.734;2023-08-20T01:37:39;23.30;99.90
5578;DHT22;2811;51.900;10.734;2023-08-20T01:40:07;23.30;99.90
5578;DHT22;2811;51.900;10.734;2023-08-20T01:42:35;23.30;99.90
5578;DHT22;2811;51.900;10.734;2023-08-20T01:45:03;23.30;99.90
5578;DHT22;2811;51.900;10.734;2023-08-20T01:47:31;23.40;99.90
5578;DHT22;2811;51.900;10.734;2023-08-20T01:49:58;23.40;99.90
5578;DHT22;2811;51.900;10.734;2023-08-20T01:52:25;23.30;99.90
5578;DHT22;2811;51.900;10.734;2023-08-20T01:54:52;23.30;99.90
5578;DHT22;2811;51.900;10.734;2023-08-20T01:57:19;23.30;99.90
5578;DHT22;2811;51.900;10.734;2023-08-20T01:59:47;23.20;99.90
5578;DHT22;2811;51.900;10.734;2023-08-20T02:02:13;23.10;99.90
5578;DHT22;2811;51.900;10.734;2023-08-20T02:04:41;23.00;99.90
5578;DHT22;2811;51.900;10.734;2023-08-20T02:07:08;23.00;99.90
5578;DHT22;2811;51.900;10.734;2023-08-20T02:09:35;22.90;99.90
5578;DHT22;2811;51.900;10.734;2023-08-20T02:12:03;22.90;99.90
5578;DHT22;2811;51.900;10.734;2023-08-20T02:14:30;22.90;99.90
5578;DHT22;2811;51.900;10.734;2023-08-20T02:17:00;22.90;99.90
5578;DHT22;2811;51.900;10.734;2023-08-20T02:19:26;22.80;99.90
5578;DHT22;2811;51.900;10.734;2023-08-20T02:21:54;22.80;99.90
5578;DHT22;2811;51.900;10.734;2023-08-20T02:24:21;22.70;99.90
5578;DHT22;2811;51.900;10.734;2023-08-20T02:26:48;22.60;99.90
5578;DHT22;2811;51.900;10.734;2023-08-20T02:29:15;22.60;99.90
5578;DHT22;2811;51.900;10.734;2023-08-20T02:31:41;22.60;99.90
5578;DHT22;2811;51.900;10.734;2023-08-20T02:34:08;22.70;99.90
5578;DHT22;2811;51.900;10.734;2023-08-20T02:36:35;22.70;99.90
5578;DHT22;2811;51.900;10.734;2023-08-20T02:39:03;22.80;99.90
5578;DHT22;2811;51.900;10.734;2023-08-20T02:41:30;22.80;99.90
5578;DHT22;2811;51.900;10.734;2023-08-20T02:43:57;22.80;99.90
5578;DHT22;2811;51.900;10.734;2023-08-20T02:46:24;22.90;99.90
5578;DHT22;2811;51.900;10.734;2023-08-20T02:48:50;22.90;99.90
5578;DHT22;2811;51.900;10.734;2023-08-20T02:51:17;22.90;99.90
5578;DHT22;2811;51.900;10.734;2023-08-20T02:53:44;23.00;99.90
5578;DHT22;2811;51.900;10.734;2023-08-20T02:56:12;23.00;99.90
5578;DHT22;2811;51.900;10.734;2023-08-20T02:58:38;23.00;99.90
5578;DHT22;2811;51.900;10.734;2023-08-20T03:01:05;23.00;99.90
5578;DHT22;2811;51.900;10.734;2023-08-20T03:03:32;23.00;99.90
5578;DHT22;2811;51.900;10.734;2023-08-20T03:05:59;23.00;99.90
5578;DHT22;2811;51.900;10.734;2023-08-20T03:08:25;22.90;99.90
5578;DHT22;2811;51.900;10.734;2023-08-20T03:10:52;22.80;99.90
5578;DHT22;2811;51.900;10.734;2023-08-20T03:13:20;22.90;99.90
5578;DHT22;2811;51.900;10.734;2023-08-20T03:15:47;22.90;99.90
5578;DHT22;2811;51.900;10.734;2023-08-20T03:18:13;22.90;99.90
5578;DHT22;2811;51.900;10.734;2023-08-20T03:20:40;22.90;99.90
5578;DHT22;2811;51.900;10.734;2023-08-20T03:23:07;22.80;99.90
5578;DHT22;2811;51.900;10.734;2023-08-20T03:25:33;22.80;99.90
5578;DHT22;2811;51.900;10.734;2023-08-20T03:28:00;22.80;99.90
5578;DHT22;2811;51.900;10.734;2023-08-20T03:30:28;22.80;99.90
5578;DHT22;2811;51.900;10.734;2023-08-20T03:32:55;22.90;99.90
5578;DHT22;2811;51.900;10.734;2023-08-20T03:35:21;23.00;99.90
5578;DHT22;2811;51.900;10.734;2023-08-20T03:37:48;22.80;99.90
5578;DHT22;2811;51.900;10.734;2023-08-20T03:40:15;22.80;99.90
5578;DHT22;2811;51.900;10.734;2023-08-20T03:42:43;22.90;99.90
5578;DHT22;2811;51.900;10.734;2023-08-20T03:45:10;22.80;99.90
5578;DHT22;2811;51.900;10.734;2023-08-20T03:47:38;22.80;99.90
5578;DHT22;2811;51.900;10.734;2023-08-20T03:50:05;22.80;99.90
5578;DHT22;2811;51.900;10.734;2023-08-20T03:52:32;22.80;99.90
5578;DHT22;2811;51.900;10.734;2023-08-20T03:54:59;22.70;99.90
5578;DHT22;2811;51.900;10.734;2023-08-20T03:57:26;22.60;99.90
5578;DHT22;2811;51.900;10.734;2023-08-20T03:59:52;22.60;99.90
5578;DHT22;2811;51.900;10.734;2023-08-20T04:02:19;22.60;99.90
5578;DHT22;2811;51.900;10.734;2023-08-20T04:04:47;22.50;99.90
5578;DHT22;2811;51.900;10.734;2023-08-20T04:07:14;22.60;99.90
5578;DHT22;2811;51.900;10.734;2023-08-20T04:09:40;22.70;99.90
5578;DHT22;2811;51.900;10.734;2023-08-20T04:12:08;22.70;99.90
5578;DHT22;2811;51.900;10.734;2023-08-20T04:14:35;22.60;99.90
5578;DHT22;2811;51.900;10.734;2023-08-20T04:17:01;22.60;99.90
5578;DHT22;2811;51.900;10.734;2023-08-20T04:19:28;22.60;99.90
5578;DHT22;2811;51.900;10.734;2023-08-20T04:21:56;22.60;99.90
5578;DHT22;2811;51.900;10.734;2023-08-20T04:24:23;22.60;99.90
5578;DHT22;2811;51.900;10.734;2023-08-20T04:26:49;23.00;99.90
5578;DHT22;2811;51.900;10.734;2023-08-20T04:29:16;22.70;99.90
5578;DHT22;2811;51.900;10.734;2023-08-20T04:31:43;22.70;99.90
5578;DHT22;2811;51.900;10.734;2023-08-20T04:34:11;22.50;99.90
5578;DHT22;2811;51.900;10.734;2023-08-20T04:36:37;22.50;99.90
5578;DHT22;2811;51.900;10.734;2023-08-20T04:39:05;22.60;99.90
5578;DHT22;2811;51.900;10.734;2023-08-20T04:41:32;22.60;99.90
5578;DHT22;2811;51.900;10.734;2023-08-20T04:43:59;22.60;99.90
5578;DHT22;2811;51.900;10.734;2023-08-20T04:46:25;22.70;99.90
5578;DHT22;2811;51.900;10.734;2023-08-20T04:48:54;22.70;99.90
5578;DHT22;2811;51.900;10.734;2023-08-20T04:51:20;22.70;99.90
5578;DHT22;2811;51.900;10.734;2023-08-20T04:53:47;22.80;99.90
5578;DHT22;2811;51.900;10.734;2023-08-20T04:56:15;22.80;99.90
5578;DHT22;2811;51.900;10.734;2023-08-20T04:58:42;22.80;99.90
5578;DHT22;2811;51.900;10.734;2023-08-20T05:01:08;22.70;99.90
5578;DHT22;2811;51.900;10.734;2023-08-20T05:03:35;22.70;99.90
5578;DHT22;2811;51.900;10.734;2023-08-20T05:06:02;22.60;99.90
5578;DHT22;2811;51.900;10.734;2023-08-20T05:08:30;22.60;99.90
5578;DHT22;2811;51.900;10.734;2023-08-20T05:10:56;22.50;99.90
5578;DHT22;2811;51.900;10.734;2023-08-20T05:13:24;22.40;99.90
5578;DHT22;2811;51.900;10.734;2023-08-20T05:15:51;22.50;99.90
5578;DHT22;2811;51.900;10.734;2023-08-20T05:18:18;22.50;99.90
5578;DHT22;2811;51.900;10.734;2023-08-20T05:20:44;22.40;99.90
5578;DHT22;2811;51.900;10.734;2023-08-20T05:23:11;22.50;99.90
5578;DHT22;2811;51.900;10.734;2023-08-20T05:25:38;22.60;99.90
5578;DHT22;2811;51.900;10.734;2023-08-20T05:28:05;22.60;99.90
5578;DHT22;2811;51.900;10.734;2023-08-20T05:30:34;22.60;99.90
5578;DHT22;2811;51.900;10.734;2023-08-20T05:33:01;22.50;99.90
5578;DHT22;2811;51.900;10.734;2023-08-20T05:35:28;22.50;99.90
5578;DHT22;2811;51.900;10.734;2023-08-20T05:37:55;22.50;99.90
5578;DHT22;2811;51.900;10.734;2023-08-20T05:40:22;22.50;99.90
5578;DHT22;2811;51.900;10.734;2023-08-20T05:42:48;22.50;99.90
5578;DHT22;2811;51.900;10.734;2023-08-20T05:45:15;22.50;99.90
5578;DHT22;2811;51.900;10.734;2023-08-20T05:47:43;22.30;99.90
5578;DHT22;2811;51.900;10.734;2023-08-20T05:50:10;22.30;99.90
5578;DHT22;2811;51.900;10.734;2023-08-20T05:52:36;22.30;99.90
5578;DHT22;2811;51.900;10.734;2023-08-20T05:55:04;22.30;99.90
5578;DHT22;2811;51.900;10.734;2023-08-20T05:57:31;22.30;99.90
5578;DHT22;2811;51.900;10.734;2023-08-20T05:59:57;22.30;99.90
5578;DHT22;2811;51.900;10.734;2023-08-20T06:02:24;22.30;99.90
5578;DHT22;2811;51.900;10.734;2023-08-20T06:04:52;22.30;99.90
5578;DHT22;2811;51.900;10.734;2023-08-20T06:07:19;22.30;99.90
5578;DHT22;2811;51.900;10.734;2023-08-20T06:09:45;22.20;99.90
5578;DHT22;2811;51.900;10.734;2023-08-20T06:12:12;22.20;99.90
5578;DHT22;2811;51.900;10.734;2023-08-20T06:14:39;22.20;99.90
5578;DHT22;2811;51.900;10.734;2023-08-20T06:17:05;22.10;99.90
5578;DHT22;2811;51.900;10.734;2023-08-20T06:19:32;22.00;99.90
5578;DHT22;2811;51.900;10.734;2023-08-20T06:22:00;22.00;99.90
5578;DHT22;2811;51.900;10.734;2023-08-20T06:24:27;22.10;99.90
5578;DHT22;2811;51.900;10.734;2023-08-20T06:26:53;22.00;99.90
5578;DHT22;2811;51.900;10.734;2023-08-20T06:29:20;22.00;99.90
5578;DHT22;2811;51.900;10.734;2023-08-20T06:31:48;22.20;99.90
5578;DHT22;2811;51.900;10.734;2023-08-20T06:34:16;22.10;99.90
5578;DHT22;2811;51.900;10.734;2023-08-20T06:36:43;22.10;99.90
5578;DHT22;2811;51.900;10.734;2023-08-20T06:39:11;22.10;99.90
5578;DHT22;2811;51.900;10.734;2023-08-20T06:41:37;22.20;99.90
5578;DHT22;2811;51.900;10.734;2023-08-20T06:44:04;22.40;99.90
5578;DHT22;2811;51.900;10.734;2023-08-20T06:46:31;22.40;99.90
5578;DHT22;2811;51.900;10.734;2023-08-20T06:48:58;22.40;99.90
5578;DHT22;2811;51.900;10.734;2023-08-20T06:51:24;22.50;99.90
5578;DHT22;2811;51.900;10.734;2023-08-20T06:53:53;22.50;99.90
5578;DHT22;2811;51.900;10.734;2023-08-20T06:56:21;22.70;99.90
5578;DHT22;2811;51.900;10.734;2023-08-20T06:58:48;22.80;99.90
5578;DHT22;2811;51.900;10.734;2023-08-20T07:01:25;22.80;99.90
5578;DHT22;2811;51.900;10.734;2023-08-20T07:03:52;23.00;99.90
5578;DHT22;2811;51.900;10.734;2023-08-20T07:06:18;23.20;99.90
5578;DHT22;2811;51.900;10.734;2023-08-20T07:08:45;23.60;99.90
5578;DHT22;2811;51.900;10.734;2023-08-20T07:11:12;23.60;99.90
5578;DHT22;2811;51.900;10.734;2023-08-20T07:13:39;23.80;99.90
5578;DHT22;2811;51.900;10.734;2023-08-20T07:16:05;24.00;99.90
5578;DHT22;2811;51.900;10.734;2023-08-20T07:18:33;24.10;99.90
5578;DHT22;2811;51.900;10.734;2023-08-20T07:21:00;24.10;99.90
5578;DHT22;2811;51.900;10.734;2023-08-20T07:23:27;24.20;99.90
5578;DHT22;2811;51.900;10.734;2023-08-20T07:26:04;24.40;99.90
5578;DHT22;2811;51.900;10.734;2023-08-20T07:28:31;24.80;99.90
5578;DHT22;2811;51.900;10.734;2023-08-20T07:31:12;25.20;99.90
5578;DHT22;2811;51.900;10.734;2023-08-20T07:33:40;25.70;99.90
5578;DHT22;2811;51.900;10.734;2023-08-20T07:36:07;25.50;99.90
5578;DHT22;2811;51.900;10.734;2023-08-20T07:38:34;24.80;99.90
5578;DHT22;2811;51.900;10.734;2023-08-20T07:41:03;24.40;99.90
5578;DHT22;2811;51.900;10.734;2023-08-20T07:43:29;24.50;99.90
5578;DHT22;2811;51.900;10.734;2023-08-20T07:45:56;24.90;99.90
5578;DHT22;2811;51.900;10.734;2023-08-20T07:48:23;24.80;99.90
5578;DHT22;2811;51.900;10.734;2023-08-20T07:50:51;24.60;99.90
5578;DHT22;2811;51.900;10.734;2023-08-20T07:53:17;24.70;99.90
5578;DHT22;2811;51.900;10.734;2023-08-20T07:55:44;25.00;99.90
5578;DHT22;2811;51.900;10.734;2023-08-20T07:58:11;25.10;99.90
5578;DHT22;2811;51.900;10.734;2023-08-20T08:00:37;25.70;99.90
5578;DHT22;2811;51.900;10.734;2023-08-20T08:03:04;25.90;99.90
5578;DHT22;2811;51.900;10.734;2023-08-20T08:05:31;26.20;99.90
5578;DHT22;2811;51.900;10.734;2023-08-20T08:07:59;26.40;99.90
5578;DHT22;2811;51.900;10.734;2023-08-20T08:10:26;26.50;99.90
5578;DHT22;2811;51.900;10.734;2023-08-20T08:12:53;26.50;99.90
5578;DHT22;2811;51.900;10.734;2023-08-20T08:15:19;26.70;99.90
5578;DHT22;2811;51.900;10.734;2023-08-20T08:17:46;26.70;99.90
5578;DHT22;2811;51.900;10.734;2023-08-20T08:20:13;26.60;99.90
5578;DHT22;2811;51.900;10.734;2023-08-20T08:22:40;26.80;99.90
5578;DHT22;2811;51.900;10.734;2023-08-20T08:25:08;26.80;99.90
5578;DHT22;2811;51.900;10.734;2023-08-20T08:27:34;27.00;99.90
5578;DHT22;2811;51.900;10.734;2023-08-20T08:30:01;26.90;99.90
5578;DHT22;2811;51.900;10.734;2023-08-20T08:32:28;26.80;99.90
5578;DHT22;2811;51.900;10.734;2023-08-20T08:34:55;27.00;99.90
5578;DHT22;2811;51.900;10.734;2023-08-20T08:37:21;27.10;99.90
5578;DHT22;2811;51.900;10.734;2023-08-20T08:39:48;27.30;99.90
5578;DHT22;2811;51.900;10.734;2023-08-20T08:42:17;27.30;99.90
5578;DHT22;2811;51.900;10.734;2023-08-20T08:44:47;27.50;99.90
5578;DHT22;2811;51.900;10.734;2023-08-20T08:47:14;27.70;99.90
5578;DHT22;2811;51.900;10.734;2023-08-20T08:49:40;27.40;99.90
5578;DHT22;2811;51.900;10.734;2023-08-20T08:52:07;27.80;99.90
5578;DHT22;2811;51.900;10.734;2023-08-20T08:54:35;27.70;99.90
5578;DHT22;2811;51.900;10.734;2023-08-20T08:57:02;27.60;99.90
5578;DHT22;2811;51.900;10.734;2023-08-20T08:59:31;27.80;99.90
5578;DHT22;2811;51.900;10.734;2023-08-20T09:01:57;27.90;99.90
5578;DHT22;2811;51.900;10.734;2023-08-20T09:04:24;27.90;99.90
5578;DHT22;2811;51.900;10.734;2023-08-20T09:06:52;27.40;99.90
5578;DHT22;2811;51.900;10.734;2023-08-20T09:09:20;27.70;99.90
5578;DHT22;2811;51.900;10.734;2023-08-20T09:11:47;28.10;99.90
5578;DHT22;2811;51.900;10.734;2023-08-20T09:14:21;28.50;99.90
5578;DHT22;2811;51.900;10.734;2023-08-20T09:16:55;28.50;99.90
5578;DHT22;2811;51.900;10.734;2023-08-20T09:19:22;28.20;99.90
5578;DHT22;2811;51.900;10.734;2023-08-20T09:21:49;27.50;99.90
5578;DHT22;2811;51.900;10.734;2023-08-20T09:24:25;27.00;99.90
5578;DHT22;2811;51.900;10.734;2023-08-20T09:26:57;27.30;99.90
5578;DHT22;2811;51.900;10.734;2023-08-20T09:29:24;27.20;99.90
5578;DHT22;2811;51.900;10.734;2023-08-20T09:32:01;27.20;99.90
5578;DHT22;2811;51.900;10.734;2023-08-20T09:34:36;27.80;99.90
5578;DHT22;2811;51.900;10.734;2023-08-20T09:37:05;28.20;99.90
5578;DHT22;2811;51.900;10.734;2023-08-20T09:39:34;28.40;99.90
5578;DHT22;2811;51.900;10.734;2023-08-20T09:42:01;28.50;99.90
5578;DHT22;2811;51.900;10.734;2023-08-20T09:44:32;28.90;99.90
5578;DHT22;2811;51.900;10.734;2023-08-20T09:47:02;28.50;99.90
5578;DHT22;2811;51.900;10.734;2023-08-20T09:49:32;28.80;99.90
5578;DHT22;2811;51.900;10.734;2023-08-20T09:52:04;28.90;99.90
5578;DHT22;2811;51.900;10.734;2023-08-20T09:54:45;29.00;99.90
5578;DHT22;2811;51.900;10.734;2023-08-20T09:57:26;28.90;99.90
5578;DHT22;2811;51.900;10.734;2023-08-20T09:59:54;28.90;99.90
5578;DHT22;2811;51.900;10.734;2023-08-20T10:02:23;28.80;99.90
5578;DHT22;2811;51.900;10.734;2023-08-20T10:04:50;28.90;99.90
5578;DHT22;2811;51.900;10.734;2023-08-20T10:07:18;28.90;99.90
5578;DHT22;2811;51.900;10.734;2023-08-20T10:09:46;28.80;99.90
5578;DHT22;2811;51.900;10.734;2023-08-20T10:12:16;28.30;99.90
5578;DHT22;2811;51.900;10.734;2023-08-20T10:14:43;28.20;99.90
5578;DHT22;2811;51.900;10.734;2023-08-20T10:17:11;28.60;99.90
5578;DHT22;2811;51.900;10.734;2023-08-20T10:19:39;28.40;99.90
5578;DHT22;2811;51.900;10.734;2023-08-20T10:22:07;28.20;99.90
5578;DHT22;2811;51.900;10.734;2023-08-20T10:24:41;28.40;99.90
5578;DHT22;2811;51.900;10.734;2023-08-20T10:27:09;28.70;99.90
5578;DHT22;2811;51.900;10.734;2023-08-20T10:29:40;28.70;99.90
5578;DHT22;2811;51.900;10.734;2023-08-20T10:32:09;28.60;99.90
5578;DHT22;2811;51.900;10.734;2023-08-20T10:34:39;28.40;99.90
5578;DHT22;2811;51.900;10.734;2023-08-20T10:37:09;28.60;99.90
5578;DHT22;2811;51.900;10.734;2023-08-20T10:39:36;28.70;99.90
5578;DHT22;2811;51.900;10.734;2023-08-20T10:42:25;29.00;99.90
5578;DHT22;2811;51.900;10.734;2023-08-20T10:44:59;28.90;99.90
5578;DHT22;2811;51.900;10.734;2023-08-20T10:47:34;28.70;99.90
5578;DHT22;2811;51.900;10.734;2023-08-20T10:50:04;28.60;99.90
5578;DHT22;2811;51.900;10.734;2023-08-20T10:52:31;28.80;99.90
5578;DHT22;2811;51.900;10.734;2023-08-20T10:54:58;29.00;99.90
5578;DHT22;2811;51.900;10.734;2023-08-20T10:57:33;29.10;99.90
5578;DHT22;2811;51.900;10.734;2023-08-20T11:00:02;28.40;99.90
5578;DHT22;2811;51.900;10.734;2023-08-20T11:02:31;28.40;99.90
5578;DHT22;2811;51.900;10.734;2023-08-20T11:04:59;28.70;99.90
5578;DHT22;2811;51.900;10.734;2023-08-20T11:07:27;29.00;99.90
5578;DHT22;2811;51.900;10.734;2023-08-20T11:09:57;29.20;99.90
5578;DHT22;2811;51.900;10.734;2023-08-20T11:12:23;29.50;99.90
5578;DHT22;2811;51.900;10.734;2023-08-20T11:14:50;29.40;99.90
5578;DHT22;2811;51.900;10.734;2023-08-20T11:17:17;29.60;99.90
5578;DHT22;2811;51.900;10.734;2023-08-20T11:19:44;29.40;99.90
5578;DHT22;2811;51.900;10.734;2023-08-20T11:22:10;29.40;99.90
5578;DHT22;2811;51.900;10.734;2023-08-20T11:24:42;29.60;99.90
5578;DHT22;2811;51.900;10.734;2023-08-20T11:27:09;29.60;99.90
5578;DHT22;2811;51.900;10.734;2023-08-20T11:29:35;29.50;99.90
5578;DHT22;2811;51.900;10.734;2023-08-20T11:32:02;29.70;99.90
5578;DHT22;2811;51.900;10.734;2023-08-20T11:34:31;29.80;99.90
5578;DHT22;2811;51.900;10.734;2023-08-20T11:36:58;29.90;99.90
5578;DHT22;2811;51.900;10.734;2023-08-20T11:39:25;30.10;99.90
5578;DHT22;2811;51.900;10.734;2023-08-20T11:41:53;30.40;99.90
5578;DHT22;2811;51.900;10.734;2023-08-20T11:44:20;30.30;99.90
5578;DHT22;2811;51.900;10.734;2023-08-20T11:46:47;30.50;99.90
5578;DHT22;2811;51.900;10.734;2023-08-20T11:49:14;30.40;99.90
5578;DHT22;2811;51.900;10.734;2023-08-20T11:51:43;30.60;99.90
5578;DHT22;2811;51.900;10.734;2023-08-20T11:54:12;30.90;99.90
5578;DHT22;2811;51.900;10.734;2023-08-20T11:56:44;30.90;99.90
5578;DHT22;2811;51.900;10.734;2023-08-20T11:59:13;30.70;99.90
5578;DHT22;2811;51.900;10.734;2023-08-20T12:01:40;30.60;99.90
5578;DHT22;2811;51.900;10.734;2023-08-20T12:04:08;30.70;99.90
5578;DHT22;2811;51.900;10.734;2023-08-20T12:06:36;30.50;99.90
5578;DHT22;2811;51.900;10.734;2023-08-20T12:09:19;30.20;99.90
5578;DHT22;2811;51.900;10.734;2023-08-20T12:11:48;30.20;99.90
5578;DHT22;2811;51.900;10.734;2023-08-20T12:14:16;30.30;99.90
5578;DHT22;2811;51.900;10.734;2023-08-20T12:16:43;30.50;99.90
5578;DHT22;2811;51.900;10.734;2023-08-20T12:19:10;30.50;99.90
5578;DHT22;2811;51.900;10.734;2023-08-20T12:21:36;30.90;99.90
5578;DHT22;2811;51.900;10.734;2023-08-20T12:24:04;31.00;99.90
5578;DHT22;2811;51.900;10.734;2023-08-20T12:26:31;30.90;99.90
5578;DHT22;2811;51.900;10.734;2023-08-20T12:28:57;30.80;99.90
5578;DHT22;2811;51.900;10.734;2023-08-20T12:31:25;30.70;99.90
5578;DHT22;2811;51.900;10.734;2023-08-20T12:33:52;31.00;99.70
5578;DHT22;2811;51.900;10.734;2023-08-20T12:36:19;31.00;99.90
5578;DHT22;2811;51.900;10.734;2023-08-20T12:38:45;31.40;99.60
5578;DHT22;2811;51.900;10.734;2023-08-20T12:41:12;31.70;99.40
5578;DHT22;2811;51.900;10.734;2023-08-20T12:43:39;31.70;99.80
5578;DHT22;2811;51.900;10.734;2023-08-20T12:46:06;32.00;98.90
5578;DHT22;2811;51.900;10.734;2023-08-20T12:48:34;32.00;98.40
5578;DHT22;2811;51.900;10.734;2023-08-20T12:51:01;32.10;97.60
5578;DHT22;2811;51.900;10.734;2023-08-20T12:53:28;32.10;97.30
5578;DHT22;2811;51.900;10.734;2023-08-20T12:55:55;31.70;98.00
5578;DHT22;2811;51.900;10.734;2023-08-20T12:58:22;31.20;99.70
5578;DHT22;2811;51.900;10.734;2023-08-20T13:00:49;30.80;99.90
5578;DHT22;2811;51.900;10.734;2023-08-20T13:03:16;30.60;99.90
5578;DHT22;2811;51.900;10.734;2023-08-20T13:05:46;30.30;99.90
5578;DHT22;2811;51.900;10.734;2023-08-20T13:08:13;30.40;99.90
5578;DHT22;2811;51.900;10.734;2023-08-20T13:10:40;30.20;99.90
5578;DHT22;2811;51.900;10.734;2023-08-20T13:13:09;30.30;99.90
5578;DHT22;2811;51.900;10.734;2023-08-20T13:15:37;30.60;99.90
5578;DHT22;2811;51.900;10.734;2023-08-20T13:18:05;30.50;99.90
5578;DHT22;2811;51.900;10.734;2023-08-20T13:20:33;30.80;99.90
5578;DHT22;2811;51.900;10.734;2023-08-20T13:23:01;30.70;99.90
5578;DHT22;2811;51.900;10.734;2023-08-20T13:25:27;30.80;99.90
5578;DHT22;2811;51.900;10.734;2023-08-20T13:27:54;31.30;99.00
5578;DHT22;2811;51.900;10.734;2023-08-20T13:30:21;31.50;98.80
5578;DHT22;2811;51.900;10.734;2023-08-20T13:32:49;31.40;99.90
5578;DHT22;2811;51.900;10.734;2023-08-20T13:35:16;31.50;98.30
5578;DHT22;2811;51.900;10.734;2023-08-20T13:37:43;31.30;99.50
5578;DHT22;2811;51.900;10.734;2023-08-20T13:40:12;31.70;99.10
5578;DHT22;2811;51.900;10.734;2023-08-20T13:42:39;31.50;99.70
5578;DHT22;2811;51.900;10.734;2023-08-20T13:45:07;31.50;99.00
5578;DHT22;2811;51.900;10.734;2023-08-20T13:47:33;31.80;97.80
5578;DHT22;2811;51.900;10.734;2023-08-20T13:50:00;31.50;99.50
5578;DHT22;2811;51.900;10.734;2023-08-20T13:52:29;31.30;99.10
5578;DHT22;2811;51.900;10.734;2023-08-20T13:54:55;31.10;98.40
5578;DHT22;2811;51.900;10.734;2023-08-20T13:57:23;30.70;99.90
5578;DHT22;2811;51.900;10.734;2023-08-20T13:59:50;30.90;99.90
5578;DHT22;2811;51.900;10.734;2023-08-20T14:02:17;31.30;99.90
5578;DHT22;2811;51.900;10.734;2023-08-20T14:04:43;31.50;98.90
5578;DHT22;2811;51.900;10.734;2023-08-20T14:07:10;31.60;98.70
5578;DHT22;2811;51.900;10.734;2023-08-20T14:09:37;31.80;97.40
5578;DHT22;2811;51.900;10.734;2023-08-20T14:12:06;31.50;98.00
5578;DHT22;2811;51.900;10.734;2023-08-20T14:14:34;31.40;98.70
5578;DHT22;2811;51.900;10.734;2023-08-20T14:17:00;31.00;99.10
5578;DHT22;2811;51.900;10.734;2023-08-20T14:19:28;30.80;99.60
5578;DHT22;2811;51.900;10.734;2023-08-20T14:21:55;30.70;99.80
5578;DHT22;2811;51.900;10.734;2023-08-20T14:24:21;30.40;99.90
5578;DHT22;2811;51.900;10.734;2023-08-20T14:26:48;30.20;99.90
5578;DHT22;2811;51.900;10.734;2023-08-20T14:29:15;30.10;99.90
5578;DHT22;2811;51.900;10.734;2023-08-20T14:31:43;29.50;99.90
5578;DHT22;2811;51.900;10.734;2023-08-20T14:34:10;29.50;99.90
5578;DHT22;2811;51.900;10.734;2023-08-20T14:36:36;29.50;99.90
5578;DHT22;2811;51.900;10.734;2023-08-20T14:39:05;29.60;99.90
5578;DHT22;2811;51.900;10.734;2023-08-20T14:41:32;29.60;99.90
5578;DHT22;2811;51.900;10.734;2023-08-20T14:43:59;29.90;99.90
5578;DHT22;2811;51.900;10.734;2023-08-20T14:46:26;30.10;99.90
5578;DHT22;2811;51.900;10.734;2023-08-20T14:48:54;30.00;99.90
5578;DHT22;2811;51.900;10.734;2023-08-20T14:51:21;30.00;99.90
5578;DHT22;2811;51.900;10.734;2023-08-20T14:53:48;29.90;99.90
5578;DHT22;2811;51.900;10.734;2023-08-20T14:56:14;29.90;99.90
5578;DHT22;2811;51.900;10.734;2023-08-20T14:58:41;29.90;99.90
5578;DHT22;2811;51.900;10.734;2023-08-20T15:01:08;29.90;99.90
5578;DHT22;2811;51.900;10.734;2023-08-20T15:03:35;29.80;99.90
5578;DHT22;2811;51.900;10.734;2023-08-20T15:06:03;29.90;99.80
5578;DHT22;2811;51.900;10.734;2023-08-20T15:08:30;29.60;99.90
5578;DHT22;2811;51.900;10.734;2023-08-20T15:10:58;29.50;99.90
5578;DHT22;2811;51.900;10.734;2023-08-20T15:13:26;29.50;99.90
5578;DHT22;2811;51.900;10.734;2023-08-20T15:15:53;29.50;99.90
5578;DHT22;2811;51.900;10.734;2023-08-20T15:18:19;29.50;99.90
5578;DHT22;2811;51.900;10.734;2023-08-20T15:20:53;29.90;99.90
5578;DHT22;2811;51.900;10.734;2023-08-20T15:23:22;29.80;99.90
5578;DHT22;2811;51.900;10.734;2023-08-20T15:25:50;29.90;99.90
5578;DHT22;2811;51.900;10.734;2023-08-20T15:28:17;29.70;99.90
5578;DHT22;2811;51.900;10.734;2023-08-20T15:30:43;29.80;99.90
5578;DHT22;2811;51.900;10.734;2023-08-20T15:33:10;29.80;99.50
5578;DHT22;2811;51.900;10.734;2023-08-20T15:35:37;29.40;99.90
5578;DHT22;2811;51.900;10.734;2023-08-20T15:38:04;29.40;99.90
5578;DHT22;2811;51.900;10.734;2023-08-20T15:40:32;29.30;99.90
5578;DHT22;2811;51.900;10.734;2023-08-20T15:42:58;29.40;99.90
5578;DHT22;2811;51.900;10.734;2023-08-20T15:45:25;29.50;99.90
5578;DHT22;2811;51.900;10.734;2023-08-20T15:47:52;29.80;99.90